sensor_id;sensor_type;location;lat;lon;timestamp;P1;durP1;ratioP1;P2;durP2;ratioP2
10805;SDS011;5455;53.224;6.000;2023-02-07T00:00:54;9.73;;;3.00;;
10805;SDS011;5455;53.224;6.000;2023-02-07T00:03:21;7.77;;;3.00;;
10805;SDS011;5455;53.224;6.000;2023-02-07T00:05:48;8.23;;;2.90;;
10805;SDS011;5455;53.224;6.000;2023-02-07T00:08:16;6.87;;;2.83;;
10805;SDS011;5455;53.224;6.000;2023-02-07T00:10:43;8.30;;;3.30;;
10805;SDS011;5455;53.224;6.000;2023-02-07T00:13:10;7.67;;;2.67;;
10805;SDS011;5455;53.224;6.000;2023-02-07T00:15:37;9.37;;;3.53;;
10805;SDS011;5455;53.224;6.000;2023-02-07T00:18:04;6.70;;;2.63;;
10805;SDS011;5455;53.224;6.000;2023-02-07T00:20:31;13.87;;;3.53;;
10805;SDS011;5455;53.224;6.000;2023-02-07T00:22:58;6.00;;;2.83;;
10805;SDS011;5455;53.224;6.000;2023-02-07T00:25:25;7.17;;;3.07;;
10805;SDS011;5455;53.224;6.000;2023-02-07T00:27:52;9.07;;;3.00;;
10805;SDS011;5455;53.224;6.000;2023-02-07T00:30:19;12.90;;;3.30;;
10805;SDS011;5455;53.224;6.000;2023-02-07T00:32:46;8.53;;;2.97;;
10805;SDS011;5455;53.224;6.000;2023-02-07T00:35:14;6.97;;;3.27;;
10805;SDS011;5455;53.224;6.000;2023-02-07T00:37:42;7.87;;;3.20;;
10805;SDS011;5455;53.224;6.000;2023-02-07T00:40:10;15.60;;;3.03;;
10805;SDS011;5455;53.224;6.000;2023-02-07T00:42:37;8.43;;;2.63;;
10805;SDS011;5455;53.224;6.000;2023-02-07T00:45:04;7.13;;;2.80;;
10805;SDS011;5455;53.224;6.000;2023-02-07T00:47:31;9.10;;;3.40;;
10805;SDS011;5455;53.224;6.000;2023-02-07T00:49:59;8.70;;;2.90;;
10805;SDS011;5455;53.224;6.000;2023-02-07T00:52:27;7.13;;;2.90;;
10805;SDS011;5455;53.224;6.000;2023-02-07T00:54:54;9.27;;;3.00;;
10805;SDS011;5455;53.224;6.000;2023-02-07T00:57:21;9.17;;;3.53;;
10805;SDS011;5455;53.224;6.000;2023-02-07T00:59:48;9.83;;;3.43;;
10805;SDS011;5455;53.224;6.000;2023-02-07T01:02:16;8.33;;;3.73;;
10805;SDS011;5455;53.224;6.000;2023-02-07T01:04:43;7.77;;;3.97;;
10805;SDS011;5455;53.224;6.000;2023-02-07T01:07:10;10.67;;;3.77;;
10805;SDS011;5455;53.224;6.000;2023-02-07T01:09:38;8.97;;;3.30;;
10805;SDS011;5455;53.224;6.000;2023-02-07T01:12:05;9.07;;;3.50;;
10805;SDS011;5455;53.224;6.000;2023-02-07T01:14:32;9.00;;;3.80;;
10805;SDS011;5455;53.224;6.000;2023-02-07T01:17:00;7.43;;;3.23;;
10805;SDS011;5455;53.224;6.000;2023-02-07T01:19:27;8.33;;;3.37;;
10805;SDS011;5455;53.224;6.000;2023-02-07T01:21:57;7.27;;;3.43;;
10805;SDS011;5455;53.224;6.000;2023-02-07T01:24:24;9.37;;;3.67;;
10805;SDS011;5455;53.224;6.000;2023-02-07T01:26:51;7.83;;;3.37;;
10805;SDS011;5455;53.224;6.000;2023-02-07T01:29:18;9.37;;;3.80;;
10805;SDS011;5455;53.224;6.000;2023-02-07T01:31:45;11.13;;;3.70;;
10805;SDS011;5455;53.224;6.000;2023-02-07T01:34:12;8.77;;;3.40;;
10805;SDS011;5455;53.224;6.000;2023-02-07T01:36:39;9.30;;;3.37;;
10805;SDS011;5455;53.224;6.000;2023-02-07T01:39:07;7.80;;;3.37;;
10805;SDS011;5455;53.224;6.000;2023-02-07T01:41:34;6.93;;;3.60;;
10805;SDS011;5455;53.224;6.000;2023-02-07T01:46:31;10.07;;;3.43;;
10805;SDS011;5455;53.224;6.000;2023-02-07T01:49:07;7.87;;;3.70;;
10805;SDS011;5455;53.224;6.000;2023-02-07T01:51:38;9.87;;;4.20;;
10805;SDS011;5455;53.224;6.000;2023-02-07T01:54:08;9.83;;;3.97;;
10805;SDS011;5455;53.224;6.000;2023-02-07T01:56:40;8.67;;;3.90;;
10805;SDS011;5455;53.224;6.000;2023-02-07T01:59:11;9.43;;;4.63;;
10805;SDS011;5455;53.224;6.000;2023-02-07T02:01:39;9.30;;;4.87;;
10805;SDS011;5455;53.224;6.000;2023-02-07T02:04:07;11.00;;;4.70;;
10805;SDS011;5455;53.224;6.000;2023-02-07T02:06:34;10.33;;;5.33;;
10805;SDS011;5455;53.224;6.000;2023-02-07T02:09:06;10.43;;;4.60;;
10805;SDS011;5455;53.224;6.000;2023-02-07T02:11:40;8.97;;;5.00;;
10805;SDS011;5455;53.224;6.000;2023-02-07T02:23:06;9.90;;;5.13;;
10805;SDS011;5455;53.224;6.000;2023-02-07T02:33:52;9.90;;;4.77;;
10805;SDS011;5455;53.224;6.000;2023-02-07T02:39:10;11.70;;;5.03;;
10805;SDS011;5455;53.224;6.000;2023-02-07T02:41:51;11.23;;;4.70;;
10805;SDS011;5455;53.224;6.000;2023-02-07T02:44:34;14.00;;;5.80;;
10805;SDS011;5455;53.224;6.000;2023-02-07T02:47:06;11.60;;;4.63;;
10805;SDS011;5455;53.224;6.000;2023-02-07T02:49:35;9.90;;;5.17;;
10805;SDS011;5455;53.224;6.000;2023-02-07T02:52:03;10.83;;;5.50;;
10805;SDS011;5455;53.224;6.000;2023-02-07T02:54:32;10.30;;;5.17;;
10805;SDS011;5455;53.224;6.000;2023-02-07T03:06:01;12.07;;;5.57;;
10805;SDS011;5455;53.224;6.000;2023-02-07T03:11:09;9.83;;;5.77;;
10805;SDS011;5455;53.224;6.000;2023-02-07T03:16:33;11.33;;;5.97;;
10805;SDS011;5455;53.224;6.000;2023-02-07T03:19:24;13.47;;;6.33;;
10805;SDS011;5455;53.224;6.000;2023-02-07T03:21:58;8.93;;;5.83;;
10805;SDS011;5455;53.224;6.000;2023-02-07T03:24:32;11.97;;;6.20;;
10805;SDS011;5455;53.224;6.000;2023-02-07T03:27:01;11.50;;;5.93;;
10805;SDS011;5455;53.224;6.000;2023-02-07T03:29:34;13.47;;;6.17;;
10805;SDS011;5455;53.224;6.000;2023-02-07T03:32:04;12.87;;;6.47;;
10805;SDS011;5455;53.224;6.000;2023-02-07T03:34:50;11.20;;;6.13;;
10805;SDS011;5455;53.224;6.000;2023-02-07T03:40:05;10.97;;;5.90;;
10805;SDS011;5455;53.224;6.000;2023-02-07T03:42:34;11.10;;;6.07;;
10805;SDS011;5455;53.224;6.000;2023-02-07T03:45:06;7.60;;;5.30;;
10805;SDS011;5455;53.224;6.000;2023-02-07T03:47:37;12.10;;;5.80;;
10805;SDS011;5455;53.224;6.000;2023-02-07T03:50:04;9.63;;;6.20;;
10805;SDS011;5455;53.224;6.000;2023-02-07T03:52:31;8.73;;;5.27;;
10805;SDS011;5455;53.224;6.000;2023-02-07T03:54:58;9.57;;;5.60;;
10805;SDS011;5455;53.224;6.000;2023-02-07T03:57:25;11.17;;;6.03;;
10805;SDS011;5455;53.224;6.000;2023-02-07T03:59:52;12.83;;;6.40;;
10805;SDS011;5455;53.224;6.000;2023-02-07T04:02:19;9.00;;;5.90;;
10805;SDS011;5455;53.224;6.000;2023-02-07T04:04:46;9.97;;;6.10;;
10805;SDS011;5455;53.224;6.000;2023-02-07T04:07:13;10.60;;;6.07;;
10805;SDS011;5455;53.224;6.000;2023-02-07T04:09:41;12.60;;;6.57;;
10805;SDS011;5455;53.224;6.000;2023-02-07T04:12:08;10.93;;;6.17;;
10805;SDS011;5455;53.224;6.000;2023-02-07T04:14:35;10.37;;;6.43;;
10805;SDS011;5455;53.224;6.000;2023-02-07T04:17:02;9.00;;;5.87;;
10805;SDS011;5455;53.224;6.000;2023-02-07T04:19:29;13.20;;;7.60;;
10805;SDS011;5455;53.224;6.000;2023-02-07T04:21:55;11.07;;;6.30;;
10805;SDS011;5455;53.224;6.000;2023-02-07T04:24:23;14.57;;;7.77;;
10805;SDS011;5455;53.224;6.000;2023-02-07T04:26:50;10.97;;;6.90;;
10805;SDS011;5455;53.224;6.000;2023-02-07T04:29:16;13.67;;;7.07;;
10805;SDS011;5455;53.224;6.000;2023-02-07T04:31:43;13.43;;;7.10;;
10805;SDS011;5455;53.224;6.000;2023-02-07T04:34:11;13.87;;;7.43;;
10805;SDS011;5455;53.224;6.000;2023-02-07T04:36:38;14.40;;;8.43;;
10805;SDS011;5455;53.224;6.000;2023-02-07T04:39:05;13.53;;;7.57;;
10805;SDS011;5455;53.224;6.000;2023-02-07T04:41:32;14.23;;;7.33;;
10805;SDS011;5455;53.224;6.000;2023-02-07T04:43:59;13.80;;;7.43;;
10805;SDS011;5455;53.224;6.000;2023-02-07T04:46:26;14.67;;;8.07;;
10805;SDS011;5455;53.224;6.000;2023-02-07T04:48:54;15.37;;;8.20;;
10805;SDS011;5455;53.224;6.000;2023-02-07T04:51:21;11.77;;;7.37;;
10805;SDS011;5455;53.224;6.000;2023-02-07T04:53:48;14.03;;;7.10;;
10805;SDS011;5455;53.224;6.000;2023-02-07T04:56:15;15.13;;;7.90;;
10805;SDS011;5455;53.224;6.000;2023-02-07T04:58:42;12.43;;;7.33;;
10805;SDS011;5455;53.224;6.000;2023-02-07T05:01:09;12.80;;;8.00;;
10805;SDS011;5455;53.224;6.000;2023-02-07T05:03:36;13.53;;;7.93;;
10805;SDS011;5455;53.224;6.000;2023-02-07T05:06:03;16.60;;;7.97;;
10805;SDS011;5455;53.224;6.000;2023-02-07T05:08:30;13.70;;;7.70;;
10805;SDS011;5455;53.224;6.000;2023-02-07T05:10:57;14.93;;;7.77;;
10805;SDS011;5455;53.224;6.000;2023-02-07T05:13:25;15.97;;;8.07;;
10805;SDS011;5455;53.224;6.000;2023-02-07T05:15:52;14.60;;;7.60;;
10805;SDS011;5455;53.224;6.000;2023-02-07T05:18:19;15.57;;;8.30;;
10805;SDS011;5455;53.224;6.000;2023-02-07T05:20:46;11.50;;;7.10;;
10805;SDS011;5455;53.224;6.000;2023-02-07T05:23:15;12.27;;;7.47;;
10805;SDS011;5455;53.224;6.000;2023-02-07T05:25:42;11.37;;;6.87;;
10805;SDS011;5455;53.224;6.000;2023-02-07T05:28:09;13.40;;;7.70;;
10805;SDS011;5455;53.224;6.000;2023-02-07T05:30:36;12.67;;;7.60;;
10805;SDS011;5455;53.224;6.000;2023-02-07T05:33:03;13.00;;;7.70;;
10805;SDS011;5455;53.224;6.000;2023-02-07T05:35:34;14.10;;;8.43;;
10805;SDS011;5455;53.224;6.000;2023-02-07T05:38:04;18.07;;;8.03;;
10805;SDS011;5455;53.224;6.000;2023-02-07T05:40:33;12.83;;;7.07;;
10805;SDS011;5455;53.224;6.000;2023-02-07T05:43:01;12.93;;;7.57;;
10805;SDS011;5455;53.224;6.000;2023-02-07T05:45:29;10.93;;;6.90;;
10805;SDS011;5455;53.224;6.000;2023-02-07T05:47:56;11.03;;;7.23;;
10805;SDS011;5455;53.224;6.000;2023-02-07T05:50:23;11.93;;;7.37;;
10805;SDS011;5455;53.224;6.000;2023-02-07T05:53:03;14.60;;;8.47;;
10805;SDS011;5455;53.224;6.000;2023-02-07T05:55:31;13.40;;;7.67;;
10805;SDS011;5455;53.224;6.000;2023-02-07T05:57:58;12.33;;;7.27;;
10805;SDS011;5455;53.224;6.000;2023-02-07T06:00:25;11.73;;;7.33;;
10805;SDS011;5455;53.224;6.000;2023-02-07T06:02:52;11.53;;;7.47;;
10805;SDS011;5455;53.224;6.000;2023-02-07T06:05:19;11.53;;;7.37;;
10805;SDS011;5455;53.224;6.000;2023-02-07T06:07:46;14.73;;;8.77;;
10805;SDS011;5455;53.224;6.000;2023-02-07T06:10:14;14.10;;;7.70;;
10805;SDS011;5455;53.224;6.000;2023-02-07T06:12:41;13.43;;;8.37;;
10805;SDS011;5455;53.224;6.000;2023-02-07T06:15:08;14.77;;;8.13;;
10805;SDS011;5455;53.224;6.000;2023-02-07T06:17:37;12.13;;;7.17;;
10805;SDS011;5455;53.224;6.000;2023-02-07T06:20:04;13.93;;;7.03;;
10805;SDS011;5455;53.224;6.000;2023-02-07T06:22:31;11.47;;;7.47;;
10805;SDS011;5455;53.224;6.000;2023-02-07T06:24:58;11.67;;;6.97;;
10805;SDS011;5455;53.224;6.000;2023-02-07T06:27:25;12.63;;;7.40;;
10805;SDS011;5455;53.224;6.000;2023-02-07T06:29:52;12.77;;;7.80;;
10805;SDS011;5455;53.224;6.000;2023-02-07T06:32:19;14.17;;;7.50;;
10805;SDS011;5455;53.224;6.000;2023-02-07T06:34:47;13.27;;;7.80;;
10805;SDS011;5455;53.224;6.000;2023-02-07T06:37:13;11.47;;;7.17;;
10805;SDS011;5455;53.224;6.000;2023-02-07T06:39:40;13.40;;;8.00;;
10805;SDS011;5455;53.224;6.000;2023-02-07T06:42:07;12.03;;;8.37;;
10805;SDS011;5455;53.224;6.000;2023-02-07T06:44:34;13.23;;;8.03;;
10805;SDS011;5455;53.224;6.000;2023-02-07T06:47:01;14.50;;;8.80;;
10805;SDS011;5455;53.224;6.000;2023-02-07T06:49:29;11.97;;;8.00;;
10805;SDS011;5455;53.224;6.000;2023-02-07T06:51:56;12.33;;;7.20;;
10805;SDS011;5455;53.224;6.000;2023-02-07T06:54:23;14.73;;;8.53;;
10805;SDS011;5455;53.224;6.000;2023-02-07T06:56:50;10.83;;;7.90;;
10805;SDS011;5455;53.224;6.000;2023-02-07T06:59:17;12.40;;;7.70;;
10805;SDS011;5455;53.224;6.000;2023-02-07T07:01:45;11.57;;;7.87;;
10805;SDS011;5455;53.224;6.000;2023-02-07T07:04:15;13.73;;;8.10;;
10805;SDS011;5455;53.224;6.000;2023-02-07T07:06:43;12.23;;;7.30;;
10805;SDS011;5455;53.224;6.000;2023-02-07T07:09:11;11.33;;;7.13;;
10805;SDS011;5455;53.224;6.000;2023-02-07T07:11:39;12.67;;;7.97;;
10805;SDS011;5455;53.224;6.000;2023-02-07T07:14:09;13.30;;;7.73;;
10805;SDS011;5455;53.224;6.000;2023-02-07T07:16:37;11.90;;;7.60;;
10805;SDS011;5455;53.224;6.000;2023-02-07T07:19:06;14.30;;;8.87;;
10805;SDS011;5455;53.224;6.000;2023-02-07T07:21:33;17.73;;;10.47;;
10805;SDS011;5455;53.224;6.000;2023-02-07T07:24:00;16.10;;;10.00;;
10805;SDS011;5455;53.224;6.000;2023-02-07T07:26:27;15.83;;;8.57;;
10805;SDS011;5455;53.224;6.000;2023-02-07T07:29:12;14.87;;;8.77;;
10805;SDS011;5455;53.224;6.000;2023-02-07T07:31:39;15.57;;;9.27;;
10805;SDS011;5455;53.224;6.000;2023-02-07T07:34:06;15.43;;;8.97;;
10805;SDS011;5455;53.224;6.000;2023-02-07T07:36:33;13.33;;;8.57;;
10805;SDS011;5455;53.224;6.000;2023-02-07T07:39:00;14.40;;;8.73;;
10805;SDS011;5455;53.224;6.000;2023-02-07T07:41:27;13.83;;;8.13;;
10805;SDS011;5455;53.224;6.000;2023-02-07T07:43:54;14.23;;;8.37;;
10805;SDS011;5455;53.224;6.000;2023-02-07T07:46:21;17.80;;;10.03;;
10805;SDS011;5455;53.224;6.000;2023-02-07T07:48:48;16.57;;;8.73;;
10805;SDS011;5455;53.224;6.000;2023-02-07T07:51:15;15.00;;;8.60;;
10805;SDS011;5455;53.224;6.000;2023-02-07T07:53:43;12.47;;;8.70;;
10805;SDS011;5455;53.224;6.000;2023-02-07T07:56:10;11.27;;;7.07;;
10805;SDS011;5455;53.224;6.000;2023-02-07T07:58:37;14.63;;;7.37;;
10805;SDS011;5455;53.224;6.000;2023-02-07T08:01:04;16.90;;;10.10;;
10805;SDS011;5455;53.224;6.000;2023-02-07T08:03:31;17.80;;;10.77;;
10805;SDS011;5455;53.224;6.000;2023-02-07T08:05:58;17.63;;;10.93;;
10805;SDS011;5455;53.224;6.000;2023-02-07T08:08:25;16.70;;;9.70;;
10805;SDS011;5455;53.224;6.000;2023-02-07T08:10:52;13.90;;;8.90;;
10805;SDS011;5455;53.224;6.000;2023-02-07T08:13:19;14.13;;;9.17;;
10805;SDS011;5455;53.224;6.000;2023-02-07T08:15:47;12.27;;;8.40;;
10805;SDS011;5455;53.224;6.000;2023-02-07T08:18:14;14.70;;;8.83;;
10805;SDS011;5455;53.224;6.000;2023-02-07T08:20:41;15.47;;;9.50;;
10805;SDS011;5455;53.224;6.000;2023-02-07T08:23:08;12.17;;;8.13;;
10805;SDS011;5455;53.224;6.000;2023-02-07T08:25:35;15.67;;;8.07;;
10805;SDS011;5455;53.224;6.000;2023-02-07T08:28:02;11.43;;;8.17;;
10805;SDS011;5455;53.224;6.000;2023-02-07T08:30:30;14.70;;;8.20;;
10805;SDS011;5455;53.224;6.000;2023-02-07T08:32:58;11.43;;;7.90;;
10805;SDS011;5455;53.224;6.000;2023-02-07T08:35:25;12.27;;;7.43;;
10805;SDS011;5455;53.224;6.000;2023-02-07T08:37:52;10.87;;;7.50;;
10805;SDS011;5455;53.224;6.000;2023-02-07T08:40:21;11.90;;;7.57;;
10805;SDS011;5455;53.224;6.000;2023-02-07T08:42:48;12.50;;;8.10;;
10805;SDS011;5455;53.224;6.000;2023-02-07T08:45:15;11.43;;;7.40;;
10805;SDS011;5455;53.224;6.000;2023-02-07T08:47:43;11.97;;;7.10;;
10805;SDS011;5455;53.224;6.000;2023-02-07T08:50:11;11.73;;;7.60;;
10805;SDS011;5455;53.224;6.000;2023-02-07T08:52:39;10.67;;;7.53;;
10805;SDS011;5455;53.224;6.000;2023-02-07T08:55:07;13.97;;;8.57;;
10805;SDS011;5455;53.224;6.000;2023-02-07T08:57:34;13.33;;;8.53;;
10805;SDS011;5455;53.224;6.000;2023-02-07T09:00:03;15.67;;;8.57;;
10805;SDS011;5455;53.224;6.000;2023-02-07T09:02:31;12.90;;;7.87;;
10805;SDS011;5455;53.224;6.000;2023-02-07T09:04:58;13.87;;;8.23;;
10805;SDS011;5455;53.224;6.000;2023-02-07T09:07:25;11.27;;;8.53;;
10805;SDS011;5455;53.224;6.000;2023-02-07T09:09:53;13.97;;;7.87;;
10805;SDS011;5455;53.224;6.000;2023-02-07T09:12:20;11.33;;;7.60;;
10805;SDS011;5455;53.224;6.000;2023-02-07T09:14:47;14.67;;;7.50;;
10805;SDS011;5455;53.224;6.000;2023-02-07T09:17:14;13.63;;;7.97;;
10805;SDS011;5455;53.224;6.000;2023-02-07T09:19:41;12.23;;;7.53;;
10805;SDS011;5455;53.224;6.000;2023-02-07T09:22:08;11.57;;;7.77;;
10805;SDS011;5455;53.224;6.000;2023-02-07T09:24:35;12.20;;;8.33;;
10805;SDS011;5455;53.224;6.000;2023-02-07T09:27:02;12.37;;;7.60;;
10805;SDS011;5455;53.224;6.000;2023-02-07T09:29:29;13.47;;;8.70;;
10805;SDS011;5455;53.224;6.000;2023-02-07T09:31:56;12.57;;;8.03;;
10805;SDS011;5455;53.224;6.000;2023-02-07T09:34:24;11.80;;;8.57;;
10805;SDS011;5455;53.224;6.000;2023-02-07T09:36:51;15.37;;;8.80;;
10805;SDS011;5455;53.224;6.000;2023-02-07T09:39:18;10.50;;;7.67;;
10805;SDS011;5455;53.224;6.000;2023-02-07T09:45:11;11.53;;;7.63;;
10805;SDS011;5455;53.224;6.000;2023-02-07T09:47:42;13.73;;;8.37;;
10805;SDS011;5455;53.224;6.000;2023-02-07T09:50:17;15.27;;;8.27;;
10805;SDS011;5455;53.224;6.000;2023-02-07T09:52:49;14.37;;;8.30;;
10805;SDS011;5455;53.224;6.000;2023-02-07T09:55:27;14.23;;;9.10;;
10805;SDS011;5455;53.224;6.000;2023-02-07T09:58:06;11.87;;;8.20;;
10805;SDS011;5455;53.224;6.000;2023-02-07T10:00:38;17.67;;;9.17;;
10805;SDS011;5455;53.224;6.000;2023-02-07T10:03:21;12.23;;;8.40;;
10805;SDS011;5455;53.224;6.000;2023-02-07T10:08:20;13.57;;;8.77;;
10805;SDS011;5455;53.224;6.000;2023-02-07T10:11:04;13.07;;;8.63;;
10805;SDS011;5455;53.224;6.000;2023-02-07T10:16:44;11.93;;;8.67;;
10805;SDS011;5455;53.224;6.000;2023-02-07T10:30:51;13.37;;;8.33;;
10805;SDS011;5455;53.224;6.000;2023-02-07T10:33:21;15.27;;;9.23;;
10805;SDS011;5455;53.224;6.000;2023-02-07T10:35:53;14.93;;;9.53;;
10805;SDS011;5455;53.224;6.000;2023-02-07T10:38:28;13.73;;;9.43;;
10805;SDS011;5455;53.224;6.000;2023-02-07T10:41:02;12.83;;;9.27;;
10805;SDS011;5455;53.224;6.000;2023-02-07T10:43:36;16.40;;;11.23;;
10805;SDS011;5455;53.224;6.000;2023-02-07T10:46:05;16.67;;;10.33;;
10805;SDS011;5455;53.224;6.000;2023-02-07T10:48:36;16.17;;;10.43;;
10805;SDS011;5455;53.224;6.000;2023-02-07T10:56:40;15.60;;;9.13;;
10805;SDS011;5455;53.224;6.000;2023-02-07T11:01:59;15.47;;;9.37;;
10805;SDS011;5455;53.224;6.000;2023-02-07T11:07:05;14.73;;;9.63;;
10805;SDS011;5455;53.224;6.000;2023-02-07T11:09:33;15.90;;;9.37;;
10805;SDS011;5455;53.224;6.000;2023-02-07T11:12:18;14.67;;;9.47;;
10805;SDS011;5455;53.224;6.000;2023-02-07T11:14:58;14.67;;;9.20;;
10805;SDS011;5455;53.224;6.000;2023-02-07T11:17:30;16.43;;;9.83;;
10805;SDS011;5455;53.224;6.000;2023-02-07T11:20:42;13.70;;;9.03;;
10805;SDS011;5455;53.224;6.000;2023-02-07T11:22:53;13.27;;;9.30;;
10805;SDS011;5455;53.224;6.000;2023-02-07T11:25:29;16.33;;;9.80;;
10805;SDS011;5455;53.224;6.000;2023-02-07T11:28:00;14.67;;;9.57;;
10805;SDS011;5455;53.224;6.000;2023-02-07T11:30:28;15.77;;;9.70;;
10805;SDS011;5455;53.224;6.000;2023-02-07T11:33:03;16.87;;;9.10;;
10805;SDS011;5455;53.224;6.000;2023-02-07T11:35:35;14.63;;;9.00;;
10805;SDS011;5455;53.224;6.000;2023-02-07T11:38:12;13.93;;;8.90;;
10805;SDS011;5455;53.224;6.000;2023-02-07T11:43:14;14.13;;;9.10;;
10805;SDS011;5455;53.224;6.000;2023-02-07T11:45:46;16.20;;;9.03;;
10805;SDS011;5455;53.224;6.000;2023-02-07T11:48:23;14.20;;;9.53;;
10805;SDS011;5455;53.224;6.000;2023-02-07T11:51:00;13.43;;;9.03;;
10805;SDS011;5455;53.224;6.000;2023-02-07T11:53:36;12.27;;;8.70;;
10805;SDS011;5455;53.224;6.000;2023-02-07T11:56:16;14.17;;;9.83;;
10805;SDS011;5455;53.224;6.000;2023-02-07T11:58:55;18.70;;;11.47;;
10805;SDS011;5455;53.224;6.000;2023-02-07T12:01:27;20.90;;;10.77;;
10805;SDS011;5455;53.224;6.000;2023-02-07T12:03:59;16.67;;;10.83;;
10805;SDS011;5455;53.224;6.000;2023-02-07T12:09:00;16.67;;;9.57;;
10805;SDS011;5455;53.224;6.000;2023-02-07T12:11:32;14.90;;;9.30;;
10805;SDS011;5455;53.224;6.000;2023-02-07T12:14:07;13.63;;;9.00;;
10805;SDS011;5455;53.224;6.000;2023-02-07T12:16:48;15.17;;;9.03;;
10805;SDS011;5455;53.224;6.000;2023-02-07T12:19:20;14.93;;;9.33;;
10805;SDS011;5455;53.224;6.000;2023-02-07T12:27:18;13.30;;;8.40;;
10805;SDS011;5455;53.224;6.000;2023-02-07T12:29:53;15.20;;;9.17;;
10805;SDS011;5455;53.224;6.000;2023-02-07T12:32:26;16.17;;;9.50;;
10805;SDS011;5455;53.224;6.000;2023-02-07T12:35:13;16.33;;;8.90;;
10805;SDS011;5455;53.224;6.000;2023-02-07T12:37:53;18.13;;;8.73;;
10805;SDS011;5455;53.224;6.000;2023-02-07T12:42:57;14.57;;;8.70;;
10805;SDS011;5455;53.224;6.000;2023-02-07T12:50:53;15.00;;;8.97;;
10805;SDS011;5455;53.224;6.000;2023-02-07T12:56:21;15.40;;;8.77;;
10805;SDS011;5455;53.224;6.000;2023-02-07T12:59:13;20.73;;;9.33;;
10805;SDS011;5455;53.224;6.000;2023-02-07T13:01:49;14.47;;;8.70;;
10805;SDS011;5455;53.224;6.000;2023-02-07T13:07:22;18.37;;;9.90;;
10805;SDS011;5455;53.224;6.000;2023-02-07T13:13:12;17.27;;;8.97;;
10805;SDS011;5455;53.224;6.000;2023-02-07T13:18:38;16.47;;;9.13;;
10805;SDS011;5455;53.224;6.000;2023-02-07T13:24:00;18.20;;;9.10;;
10805;SDS011;5455;53.224;6.000;2023-02-07T13:26:30;18.80;;;9.70;;
10805;SDS011;5455;53.224;6.000;2023-02-07T13:29:02;15.83;;;10.27;;
10805;SDS011;5455;53.224;6.000;2023-02-07T13:31:42;14.70;;;8.87;;
10805;SDS011;5455;53.224;6.000;2023-02-07T13:34:17;16.53;;;9.90;;
10805;SDS011;5455;53.224;6.000;2023-02-07T13:36:47;17.20;;;9.60;;
10805;SDS011;5455;53.224;6.000;2023-02-07T13:41:53;16.63;;;9.07;;
10805;SDS011;5455;53.224;6.000;2023-02-07T13:44:25;17.27;;;10.10;;
10805;SDS011;5455;53.224;6.000;2023-02-07T13:52:21;17.13;;;10.23;;
10805;SDS011;5455;53.224;6.000;2023-02-07T14:01:24;16.57;;;9.47;;
10805;SDS011;5455;53.224;6.000;2023-02-07T14:06:35;16.43;;;9.97;;
10805;SDS011;5455;53.224;6.000;2023-02-07T14:11:41;18.30;;;9.97;;
10805;SDS011;5455;53.224;6.000;2023-02-07T14:14:14;17.00;;;9.57;;
10805;SDS011;5455;53.224;6.000;2023-02-07T14:16:43;15.63;;;8.57;;
10805;SDS011;5455;53.224;6.000;2023-02-07T14:19:13;17.50;;;10.10;;
10805;SDS011;5455;53.224;6.000;2023-02-07T14:21:43;16.43;;;9.23;;
10805;SDS011;5455;53.224;6.000;2023-02-07T14:29:37;16.90;;;8.80;;
10805;SDS011;5455;53.224;6.000;2023-02-07T14:34:58;13.37;;;8.33;;
10805;SDS011;5455;53.224;6.000;2023-02-07T14:40:27;12.20;;;7.43;;
10805;SDS011;5455;53.224;6.000;2023-02-07T14:45:39;13.63;;;8.03;;
10805;SDS011;5455;53.224;6.000;2023-02-07T14:50:55;12.17;;;7.67;;
10805;SDS011;5455;53.224;6.000;2023-02-07T14:53:22;11.20;;;7.50;;
10805;SDS011;5455;53.224;6.000;2023-02-07T14:55:51;12.53;;;8.00;;
10805;SDS011;5455;53.224;6.000;2023-02-07T14:58:30;13.03;;;7.33;;
10805;SDS011;5455;53.224;6.000;2023-02-07T15:01:02;12.80;;;7.53;;
10805;SDS011;5455;53.224;6.000;2023-02-07T15:03:38;10.00;;;7.03;;
10805;SDS011;5455;53.224;6.000;2023-02-07T15:06:16;13.50;;;7.90;;
10805;SDS011;5455;53.224;6.000;2023-02-07T15:09:00;11.47;;;7.40;;
10805;SDS011;5455;53.224;6.000;2023-02-07T15:11:28;12.17;;;7.73;;
10805;SDS011;5455;53.224;6.000;2023-02-07T15:13:57;14.03;;;8.33;;
10805;SDS011;5455;53.224;6.000;2023-02-07T15:16:29;12.33;;;7.63;;
10805;SDS011;5455;53.224;6.000;2023-02-07T15:19:00;12.10;;;7.23;;
10805;SDS011;5455;53.224;6.000;2023-02-07T15:21:41;11.80;;;7.07;;
10805;SDS011;5455;53.224;6.000;2023-02-07T15:27:21;12.73;;;7.33;;
10805;SDS011;5455;53.224;6.000;2023-02-07T15:30:00;11.80;;;7.13;;
10805;SDS011;5455;53.224;6.000;2023-02-07T15:32:29;11.20;;;7.50;;
10805;SDS011;5455;53.224;6.000;2023-02-07T15:35:11;11.13;;;7.73;;
10805;SDS011;5455;53.224;6.000;2023-02-07T15:37:43;9.07;;;6.57;;
10805;SDS011;5455;53.224;6.000;2023-02-07T15:40:13;13.63;;;7.17;;
10805;SDS011;5455;53.224;6.000;2023-02-07T15:42:52;13.10;;;6.73;;
10805;SDS011;5455;53.224;6.000;2023-02-07T15:45:27;14.00;;;7.10;;
10805;SDS011;5455;53.224;6.000;2023-02-07T15:48:00;12.30;;;6.63;;
10805;SDS011;5455;53.224;6.000;2023-02-07T15:50:35;9.57;;;6.03;;
10805;SDS011;5455;53.224;6.000;2023-02-07T15:53:04;10.57;;;6.70;;
10805;SDS011;5455;53.224;6.000;2023-02-07T15:55:43;10.00;;;6.43;;
10805;SDS011;5455;53.224;6.000;2023-02-07T15:58:33;11.13;;;6.30;;
10805;SDS011;5455;53.224;6.000;2023-02-07T16:01:06;10.33;;;6.33;;
10805;SDS011;5455;53.224;6.000;2023-02-07T16:03:42;11.53;;;7.07;;
10805;SDS011;5455;53.224;6.000;2023-02-07T16:06:18;10.83;;;6.60;;
10805;SDS011;5455;53.224;6.000;2023-02-07T16:08:48;11.23;;;7.07;;
10805;SDS011;5455;53.224;6.000;2023-02-07T16:19:18;11.17;;;6.47;;
10805;SDS011;5455;53.224;6.000;2023-02-07T16:21:49;9.73;;;6.23;;
10805;SDS011;5455;53.224;6.000;2023-02-07T16:24:30;8.27;;;6.17;;
10805;SDS011;5455;53.224;6.000;2023-02-07T16:27:00;10.80;;;7.00;;
10805;SDS011;5455;53.224;6.000;2023-02-07T16:29:28;10.53;;;6.70;;
10805;SDS011;5455;53.224;6.000;2023-02-07T16:31:55;12.23;;;7.50;;
10805;SDS011;5455;53.224;6.000;2023-02-07T16:34:22;12.30;;;7.83;;
10805;SDS011;5455;53.224;6.000;2023-02-07T16:36:50;12.50;;;7.77;;
10805;SDS011;5455;53.224;6.000;2023-02-07T16:39:19;10.57;;;7.03;;
10805;SDS011;5455;53.224;6.000;2023-02-07T16:41:47;13.13;;;7.07;;
10805;SDS011;5455;53.224;6.000;2023-02-07T16:44:18;11.93;;;6.97;;
10805;SDS011;5455;53.224;6.000;2023-02-07T16:46:48;11.33;;;7.73;;
10805;SDS011;5455;53.224;6.000;2023-02-07T16:49:17;11.33;;;7.13;;
10805;SDS011;5455;53.224;6.000;2023-02-07T16:51:46;11.53;;;7.57;;
10805;SDS011;5455;53.224;6.000;2023-02-07T16:54:14;12.67;;;8.00;;
10805;SDS011;5455;53.224;6.000;2023-02-07T16:56:41;12.40;;;7.87;;
10805;SDS011;5455;53.224;6.000;2023-02-07T16:59:11;13.40;;;7.70;;
10805;SDS011;5455;53.224;6.000;2023-02-07T17:01:47;11.63;;;8.00;;
10805;SDS011;5455;53.224;6.000;2023-02-07T17:04:17;12.47;;;8.50;;
10805;SDS011;5455;53.224;6.000;2023-02-07T17:06:46;18.40;;;10.37;;
10805;SDS011;5455;53.224;6.000;2023-02-07T17:11:43;14.43;;;8.90;;
10805;SDS011;5455;53.224;6.000;2023-02-07T17:14:10;13.33;;;8.20;;
10805;SDS011;5455;53.224;6.000;2023-02-07T17:16:37;14.17;;;8.13;;
10805;SDS011;5455;53.224;6.000;2023-02-07T17:19:09;12.20;;;7.23;;
10805;SDS011;5455;53.224;6.000;2023-02-07T17:21:45;14.50;;;8.53;;
10805;SDS011;5455;53.224;6.000;2023-02-07T17:24:12;11.83;;;7.93;;
10805;SDS011;5455;53.224;6.000;2023-02-07T17:26:40;15.90;;;8.30;;
10805;SDS011;5455;53.224;6.000;2023-02-07T17:29:10;10.70;;;7.47;;
10805;SDS011;5455;53.224;6.000;2023-02-07T17:31:39;13.37;;;7.57;;
10805;SDS011;5455;53.224;6.000;2023-02-07T17:34:06;14.20;;;8.30;;
10805;SDS011;5455;53.224;6.000;2023-02-07T17:36:34;12.07;;;7.80;;
10805;SDS011;5455;53.224;6.000;2023-02-07T17:39:01;12.57;;;8.40;;
10805;SDS011;5455;53.224;6.000;2023-02-07T17:41:28;13.90;;;9.00;;